Time;durP1;ratioP1;P1;durP2;ratioP2;P2;SDS_P1;SDS_P2;PMS_P1;PMS_P2;Temp;Humidity;BMP_temperature;BMP_pressure;BME280_temperature;BME280_humidity;BME280_pressure;Samples;Min_cycle;Max_cycle;Signal;HPM_P1;HPM_P2
2022/03/01 00:04:26;;;;;;;8.73;7.30;;;;;;;;;;10199265;29;20085;-71
2022/03/01 00:09:26;;;;;;;7.30;6.32;;;;;;;;;;10199558;29;20031;-73
2022/03/01 00:14:27;;;;;;;7.93;7.13;;;;;;;;;;10199295;29;20055;-76
2022/03/01 00:19:30;;;;;;;7.72;6.13;;;;;;;;;;10198866;29;20023;-73
2022/03/01 00:24:30;;;;;;;8.88;8.18;;;;;;;;;;10183304;29;20032;-71
2022/03/01 00:29:31;;;;;;;9.03;7.43;;;;;;;;;;10199777;29;20034;-73
2022/03/01 00:34:31;;;;;;;9.43;7.80;;;;;;;;;;10197756;29;20028;-72
2022/03/01 00:39:31;;;;;;;11.07;9.00;;;;;;;;;;10197396;29;20054;-72
2022/03/01 00:44:32;;;;;;;11.73;9.50;;;;;;;;;;10198246;29;20039;-74
2022/03/01 00:49:32;;;;;;;10.93;9.83;;;;;;;;;;10198002;29;20024;-73
2022/03/01 00:54:32;;;;;;;12.80;11.70;;;;;;;;;;10199110;29;20306;-71
2022/03/01 00:59:33;;;;;;;16.88;15.23;;;;;;;;;;10197969;29;20081;-74
2022/03/01 01:04:33;;;;;;;15.87;14.40;;;;;;;;;;10213986;29;20491;-76
2022/03/01 01:09:33;;;;;;;15.27;13.75;;;;;;;;;;10199639;29;20098;-75
2022/03/01 01:14:34;;;;;;;15.80;14.40;;;;;;;;;;10198555;29;20030;-73
2022/03/01 01:19:34;;;;;;;13.73;12.40;;;;;;;;;;10198175;29;20028;-73
2022/03/01 01:24:34;;;;;;;17.47;15.37;;;;;;;;;;10198635;29;20023;-72
2022/03/01 01:29:34;;;;;;;19.83;12.32;;;;;;;;;;10181615;28;20012;-72
2022/03/01 01:34:35;;;;;;;16.52;14.85;;;;;;;;;;10213159;29;20436;-71
2022/03/01 01:39:35;;;;;;;18.75;17.05;;;;;;;;;;10212590;29;20169;-71
2022/03/01 01:44:35;;;;;;;19.25;17.38;;;;;;;;;;10197038;29;20147;-73
2022/03/01 01:49:36;;;;;;;18.85;17.10;;;;;;;;;;10201537;29;20491;-72
2022/03/01 01:54:36;;;;;;;23.10;20.67;;;;;;;;;;10203494;29;20093;-72
2022/03/01 01:59:36;;;;;;;20.17;15.33;;;;;;;;;;10203247;29;20027;-73
2022/03/01 02:04:37;;;;;;;16.60;14.40;;;;;;;;;;10219246;29;20066;-73
2022/03/01 02:09:38;;;;;;;18.73;15.25;;;;;;;;;;10202977;29;20521;-74
2022/03/01 02:14:39;;;;;;;19.17;16.35;;;;;;;;;;10206961;29;20079;-72
2022/03/01 02:19:46;;;;;;;19.80;17.65;;;;;;;;;;10226600;29;20027;-72
2022/03/01 02:24:46;;;;;;;21.60;19.93;;;;;;;;;;10243902;28;20424;-76
2022/03/01 02:29:47;;;;;;;20.53;16.53;;;;;;;;;;10242840;28;20023;-72
2022/03/01 02:34:48;;;;;;;23.73;16.63;;;;;;;;;;10241970;29;20130;-73
2022/03/01 02:39:48;;;;;;;14.70;13.18;;;;;;;;;;10241228;29;20078;-72
2022/03/01 02:44:49;;;;;;;18.27;13.88;;;;;;;;;;10241514;29;20122;-74
2022/03/01 02:49:50;;;;;;;14.48;13.07;;;;;;;;;;10241732;28;20028;-76
2022/03/01 02:54:50;;;;;;;16.60;14.90;;;;;;;;;;10241240;29;20035;-73
2022/03/01 02:59:51;;;;;;;25.48;23.60;;;;;;;;;;10240269;28;20023;-72
2022/03/01 03:04:51;;;;;;;18.95;17.10;;;;;;;;;;10240658;29;20483;-72
2022/03/01 03:09:51;;;;;;;12.30;11.20;;;;;;;;;;10240823;29;20030;-75
2022/03/01 03:14:52;;;;;;;17.20;15.90;;;;;;;;;;10242659;28;20483;-73
2022/03/01 03:19:52;;;;;;;9.87;8.77;;;;;;;;;;10240959;29;20019;-73
2022/03/01 03:24:53;;;;;;;9.20;8.45;;;;;;;;;;10241769;28;20114;-72
2022/03/01 03:29:53;;;;;;;10.07;9.15;;;;;;;;;;10241639;28;20092;-74
2022/03/01 03:34:53;;;;;;;10.18;8.13;;;;;;;;;;10240272;29;20031;-72
2022/03/01 03:39:54;;;;;;;9.77;8.32;;;;;;;;;;10241143;28;20070;-72
2022/03/01 03:44:54;;;;;;;10.73;9.77;;;;;;;;;;10240976;28;20431;-73
2022/03/01 03:49:54;;;;;;;9.17;8.37;;;;;;;;;;10239800;29;20061;-72
2022/03/01 03:54:54;;;;;;;11.70;9.47;;;;;;;;;;10239614;29;20046;-73
2022/03/01 03:59:55;;;;;;;8.05;7.55;;;;;;;;;;10240868;28;20655;-72
2022/03/01 04:04:55;;;;;;;9.45;8.70;;;;;;;;;;10240492;28;20106;-73
2022/03/01 04:09:55;;;;;;;11.23;10.33;;;;;;;;;;10239130;28;20464;-73
2022/03/01 04:14:56;;;;;;;7.50;6.90;;;;;;;;;;10239029;29;20035;-74
2022/03/01 04:19:56;;;;;;;19.50;13.88;;;;;;;;;;10238513;29;20027;-73
2022/03/01 04:24:57;;;;;;;11.65;10.65;;;;;;;;;;10238625;28;20038;-73
2022/03/01 04:29:57;;;;;;;13.45;10.98;;;;;;;;;;10238439;28;20643;-73
2022/03/01 04:34:58;;;;;;;10.53;9.63;;;;;;;;;;10201694;28;20487;-79
2022/03/01 04:39:58;;;;;;;13.25;12.23;;;;;;;;;;10199021;29;20117;-71
2022/03/01 04:44:59;;;;;;;14.25;13.15;;;;;;;;;;10198732;29;20333;-72
2022/03/01 04:49:59;;;;;;;16.00;14.80;;;;;;;;;;10248484;28;20414;-72
2022/03/01 04:54:59;;;;;;;13.68;12.55;;;;;;;;;;10215955;29;20566;-74
2022/03/01 05:00:00;;;;;;;12.23;10.77;;;;;;;;;;10234391;28;20027;-72
2022/03/01 05:05:00;;;;;;;9.30;8.40;;;;;;;;;;10235248;29;20046;-75
2022/03/01 05:10:00;;;;;;;10.27;9.53;;;;;;;;;;10236819;28;20658;-78
2022/03/01 05:15:01;;;;;;;16.73;9.90;;;;;;;;;;10197375;29;20039;-75
2022/03/01 05:20:01;;;;;;;12.55;10.98;;;;;;;;;;10196701;29;20085;-76
2022/03/01 05:25:02;;;;;;;14.25;9.75;;;;;;;;;;10218345;28;20147;-77
2022/03/01 05:30:03;;;;;;;13.63;12.55;;;;;;;;;;10207480;29;20031;-74
2022/03/01 05:35:04;;;;;;;11.88;9.13;;;;;;;;;;10243163;29;20026;-76
2022/03/01 05:40:04;;;;;;;11.20;9.70;;;;;;;;;;10241499;28;20047;-73
2022/03/01 05:45:05;;;;;;;14.43;10.48;;;;;;;;;;10242742;28;20055;-74
2022/03/01 05:50:06;;;;;;;12.48;11.30;;;;;;;;;;10243491;28;20483;-78
2022/03/01 05:55:08;;;;;;;13.90;12.50;;;;;;;;;;10241907;29;20028;-75
2022/03/01 06:00:10;;;;;;;13.68;12.43;;;;;;;;;;10241922;29;20084;-76
2022/03/01 06:05:11;;;;;;;13.20;9.23;;;;;;;;;;10241055;28;20031;-75
2022/03/01 06:10:12;;;;;;;13.20;10.40;;;;;;;;;;10242039;28;20111;-74
2022/03/01 06:15:12;;;;;;;13.80;9.80;;;;;;;;;;10241889;28;20037;-76
2022/03/01 06:20:13;;;;;;;14.23;9.40;;;;;;;;;;10241778;29;20024;-76
2022/03/01 06:25:13;;;;;;;14.27;8.82;;;;;;;;;;10240326;28;20031;-75
2022/03/01 06:30:14;;;;;;;19.10;11.63;;;;;;;;;;10424341;28;20021;-75
2022/03/01 06:35:14;;;;;;;14.43;11.53;;;;;;;;;;10449836;28;20024;-75
2022/03/01 06:40:14;;;;;;;26.45;18.48;;;;;;;;;;10451398;28;20068;-76
2022/03/01 06:45:15;;;;;;;17.05;9.63;;;;;;;;;;10451070;28;20115;-75
2022/03/01 06:50:16;;;;;;;13.52;9.02;;;;;;;;;;10451178;28;20013;-74
2022/03/01 06:55:16;;;;;;;14.63;9.15;;;;;;;;;;10450871;28;20033;-75
2022/03/01 07:00:17;;;;;;;13.18;6.65;;;;;;;;;;10449597;28;20032;-75
2022/03/01 07:05:17;;;;;;;12.70;6.00;;;;;;;;;;10369042;28;20099;-75
2022/03/01 07:10:18;;;;;;;14.32;6.57;;;;;;;;;;10200840;29;20589;-76
2022/03/01 07:15:18;;;;;;;6.67;4.63;;;;;;;;;;10216378;29;20027;-74
2022/03/01 07:20:18;;;;;;;6.05;4.65;;;;;;;;;;10200800;29;20030;-77
2022/03/01 07:25:18;;;;;;;10.85;4.85;;;;;;;;;;10202150;29;20059;-75
2022/03/01 07:30:20;;;;;;;7.72;4.32;;;;;;;;;;10201412;29;20028;-75
2022/03/01 07:35:20;;;;;;;6.70;3.72;;;;;;;;;;10201214;29;20082;-76
2022/03/01 07:40:21;;;;;;;5.25;4.13;;;;;;;;;;10200515;29;20416;-76
2022/03/01 07:45:22;;;;;;;5.88;3.92;;;;;;;;;;10200678;29;20452;-76
2022/03/01 07:50:22;;;;;;;6.28;4.30;;;;;;;;;;10200299;29;20027;-77
2022/03/01 07:55:23;;;;;;;9.38;5.75;;;;;;;;;;10200081;29;20077;-76
2022/03/01 08:00:27;;;;;;;13.52;6.32;;;;;;;;;;10206269;28;20024;-75
2022/03/01 08:05:27;;;;;;;8.45;5.60;;;;;;;;;;10200113;29;20024;-77
2022/03/01 08:10:28;;;;;;;9.40;4.97;;;;;;;;;;10199599;29;20031;-76
2022/03/01 08:15:28;;;;;;;9.03;5.60;;;;;;;;;;10200491;29;20043;-75
2022/03/01 08:20:28;;;;;;;9.53;5.17;;;;;;;;;;10199351;29;20093;-75
2022/03/01 08:25:29;;;;;;;9.02;4.75;;;;;;;;;;10198971;29;20046;-76
2022/03/01 08:30:29;;;;;;;9.93;4.80;;;;;;;;;;10199706;29;20356;-73
2022/03/01 08:35:32;;;;;;;7.65;4.10;;;;;;;;;;10198743;29;20034;-74
2022/03/01 08:40:34;;;;;;;5.40;4.13;;;;;;;;;;10198020;29;20044;-76
2022/03/01 08:45:34;;;;;;;8.50;5.05;;;;;;;;;;10197555;29;20032;-75
2022/03/01 08:50:35;;;;;;;9.20;4.30;;;;;;;;;;10198259;29;20122;-74
2022/03/01 08:55:35;;;;;;;8.25;4.32;;;;;;;;;;10199122;29;20015;-75
2022/03/01 09:00:35;;;;;;;8.52;3.90;;;;;;;;;;10196998;29;20020;-75
2022/03/01 09:05:36;;;;;;;8.88;4.15;;;;;;;;;;10198776;29;20035;-75
2022/03/01 09:10:36;;;;;;;7.23;4.53;;;;;;;;;;10197215;29;20122;-76
2022/03/01 09:15:36;;;;;;;6.80;4.60;;;;;;;;;;10197334;29;20024;-76
2022/03/01 09:20:37;;;;;;;10.00;3.90;;;;;;;;;;10197105;29;20062;-75
2022/03/01 09:25:37;;;;;;;10.60;5.07;;;;;;;;;;10197270;29;20534;-76
2022/03/01 09:30:37;;;;;;;6.93;4.70;;;;;;;;;;10196658;29;20024;-75
2022/03/01 09:35:38;;;;;;;10.37;6.37;;;;;;;;;;10196579;29;20795;-75
2022/03/01 09:40:38;;;;;;;8.83;5.87;;;;;;;;;;10196766;29;20052;-76
2022/03/01 09:45:38;;;;;;;7.77;5.53;;;;;;;;;;10212357;29;20299;-75
2022/03/01 09:50:40;;;;;;;9.87;5.27;;;;;;;;;;10180720;29;20557;-74
2022/03/01 09:55:41;;;;;;;8.30;6.93;;;;;;;;;;10196208;29;20166;-75
2022/03/01 10:00:41;;;;;;;8.90;5.73;;;;;;;;;;10212043;29;20031;-77
2022/03/01 10:05:42;;;;;;;11.10;7.25;;;;;;;;;;10236724;28;20024;-76
2022/03/01 10:10:44;;;;;;;8.88;5.93;;;;;;;;;;10240288;29;20023;-76
2022/03/01 10:15:45;;;;;;;9.40;6.03;;;;;;;;;;10243812;28;20028;-75
2022/03/01 10:20:46;;;;;;;8.07;6.40;;;;;;;;;;10241429;29;20019;-74
2022/03/01 10:25:46;;;;;;;13.32;7.40;;;;;;;;;;10241520;28;20031;-75
2022/03/01 10:30:46;;;;;;;10.57;6.72;;;;;;;;;;10242250;28;20027;-75
2022/03/01 10:35:57;;;;;;;15.02;8.00;;;;;;;;;;10240706;28;20035;-75
2022/03/01 10:40:59;;;;;;;10.07;6.50;;;;;;;;;;10242394;28;20229;-75
2022/03/01 10:46:02;;;;;;;12.00;6.35;;;;;;;;;;10240965;29;20039;-77
2022/03/01 10:51:10;;;;;;;14.55;7.55;;;;;;;;;;10241001;29;20030;-76
2022/03/01 10:56:11;;;;;;;10.48;6.70;;;;;;;;;;10240875;29;20086;-75
2022/03/01 11:01:12;;;;;;;9.48;5.40;;;;;;;;;;10240056;29;20050;-74
2022/03/01 11:06:12;;;;;;;7.55;4.78;;;;;;;;;;10240407;28;20023;-75
2022/03/01 11:11:12;;;;;;;11.20;6.47;;;;;;;;;;10239782;28;20170;-75
2022/03/01 11:16:13;;;;;;;7.78;4.50;;;;;;;;;;10240150;29;20019;-75
2022/03/01 11:21:14;;;;;;;8.40;5.27;;;;;;;;;;10240279;28;20479;-76
2022/03/01 11:26:15;;;;;;;6.93;5.00;;;;;;;;;;10239307;28;20034;-75
2022/03/01 11:31:19;;;;;;;8.25;4.82;;;;;;;;;;10240098;28;20016;-74
2022/03/01 11:36:21;;;;;;;5.90;4.05;;;;;;;;;;10238641;29;20031;-75
2022/03/01 11:41:22;;;;;;;6.63;4.68;;;;;;;;;;10239337;28;20051;-75
2022/03/01 11:46:23;;;;;;;6.28;4.05;;;;;;;;;;10238474;28;20111;-74
2022/03/01 11:51:59;;;;;;;6.35;3.83;;;;;;;;;;10240515;28;20022;-74
2022/03/01 11:57:02;;;;;;;8.77;5.43;;;;;;;;;;10233787;28;20027;-74
2022/03/01 12:02:04;;;;;;;6.80;4.10;;;;;;;;;;10238944;29;20019;-77
2022/03/01 12:07:04;;;;;;;7.43;4.55;;;;;;;;;;10238377;28;20035;-75
2022/03/01 12:12:08;;;;;;;9.07;5.60;;;;;;;;;;10238125;29;20035;-74
2022/03/01 12:17:17;;;;;;;7.53;5.20;;;;;;;;;;10238534;29;20123;-74
2022/03/01 12:22:18;;;;;;;5.95;4.35;;;;;;;;;;10238778;29;20031;-77
2022/03/01 12:27:18;;;;;;;8.05;5.20;;;;;;;;;;10238043;29;20525;-76
2022/03/01 12:32:18;;;;;;;8.10;4.70;;;;;;;;;;10238374;28;20440;-76
2022/03/01 12:37:19;;;;;;;16.53;5.60;;;;;;;;;;10238269;28;20047;-77
2022/03/01 12:42:21;;;;;;;14.07;6.17;;;;;;;;;;10237860;29;20658;-77
2022/03/01 12:47:21;;;;;;;14.55;7.38;;;;;;;;;;10239725;28;20038;-76
2022/03/01 12:52:22;;;;;;;13.20;6.20;;;;;;;;;;10238870;28;20030;-76
2022/03/01 12:57:22;;;;;;;11.30;5.97;;;;;;;;;;10237738;29;20269;-76
2022/03/01 13:02:23;;;;;;;9.40;6.03;;;;;;;;;;10219915;29;20024;-75
2022/03/01 13:07:31;;;;;;;12.02;6.13;;;;;;;;;;10198533;29;20379;-74
2022/03/01 13:12:32;;;;;;;12.77;6.35;;;;;;;;;;10203967;29;20019;-74
2022/03/01 13:17:33;;;;;;;10.07;5.33;;;;;;;;;;10236551;29;20517;-75
2022/03/01 13:22:34;;;;;;;11.18;5.43;;;;;;;;;;10213181;29;20274;-74
2022/03/01 13:27:35;;;;;;;8.30;5.03;;;;;;;;;;10197058;29;20032;-75
2022/03/01 13:32:35;;;;;;;10.90;6.35;;;;;;;;;;10212993;28;20479;-76
2022/03/01 13:37:40;;;;;;;13.85;6.65;;;;;;;;;;10198238;29;20040;-76
2022/03/01 13:42:41;;;;;;;11.05;6.55;;;;;;;;;;10197847;29;20410;-77
2022/03/01 13:47:43;;;;;;;13.37;6.67;;;;;;;;;;10204846;29;20020;-75
2022/03/01 13:52:44;;;;;;;11.48;5.93;;;;;;;;;;10204584;29;20020;-77
2022/03/01 13:57:46;;;;;;;11.48;6.35;;;;;;;;;;10203446;29;20380;-77
2022/03/01 14:02:52;;;;;;;13.02;7.15;;;;;;;;;;10204094;28;20050;-75
2022/03/01 14:07:56;;;;;;;12.27;6.47;;;;;;;;;;10205564;28;20032;-75
2022/03/01 14:13:04;;;;;;;12.88;6.90;;;;;;;;;;10203334;29;20480;-74
2022/03/01 14:18:05;;;;;;;8.45;6.03;;;;;;;;;;10242133;29;20023;-74
2022/03/01 14:23:05;;;;;;;9.98;5.90;;;;;;;;;;10241568;29;20028;-76
2022/03/01 14:28:06;;;;;;;13.27;6.67;;;;;;;;;;10242064;29;20438;-76
2022/03/01 14:33:07;;;;;;;17.15;8.73;;;;;;;;;;10240821;28;20438;-75
2022/03/01 14:38:07;;;;;;;15.10;8.73;;;;;;;;;;10232126;28;20079;-75
2022/03/01 14:43:07;;;;;;;15.02;7.82;;;;;;;;;;10215668;28;20130;-73
2022/03/01 14:48:08;;;;;;;12.48;7.53;;;;;;;;;;10348500;28;20025;-76
2022/03/01 14:53:08;;;;;;;15.07;7.82;;;;;;;;;;10310323;28;20039;-77
2022/03/01 14:58:08;;;;;;;11.30;7.87;;;;;;;;;;10318737;28;20066;-73
2022/03/01 15:03:09;;;;;;;10.87;6.87;;;;;;;;;;10241513;28;20085;-72
2022/03/01 15:08:10;;;;;;;12.67;7.23;;;;;;;;;;10222168;28;20031;-72
2022/03/01 15:13:10;;;;;;;14.60;7.65;;;;;;;;;;10222309;28;20483;-73
2022/03/01 15:18:11;;;;;;;13.03;8.13;;;;;;;;;;10222632;28;20103;-72
2022/03/01 15:23:11;;;;;;;13.10;7.70;;;;;;;;;;10218544;29;20572;-72
2022/03/01 15:28:11;;;;;;;17.20;7.75;;;;;;;;;;10218241;28;20131;-72
2022/03/01 15:33:12;;;;;;;10.80;6.05;;;;;;;;;;10255365;28;20123;-71
2022/03/01 15:38:12;;;;;;;11.25;6.35;;;;;;;;;;10235209;28;20048;-73
2022/03/01 15:43:13;;;;;;;14.93;8.07;;;;;;;;;;10236813;28;20031;-73
2022/03/01 15:48:13;;;;;;;14.97;7.43;;;;;;;;;;10219031;29;20118;-74
2022/03/01 15:53:13;;;;;;;13.33;7.53;;;;;;;;;;10290088;28;20503;-73
2022/03/01 15:58:14;;;;;;;13.43;7.83;;;;;;;;;;10301899;28;20070;-71
2022/03/01 16:03:15;;;;;;;19.35;9.38;;;;;;;;;;10211490;29;20035;-74
2022/03/01 16:08:15;;;;;;;14.00;7.67;;;;;;;;;;10197913;29;20032;-71
2022/03/01 16:13:15;;;;;;;13.57;7.27;;;;;;;;;;10238198;29;20662;-73
2022/03/01 16:18:16;;;;;;;12.95;7.97;;;;;;;;;;10238374;29;20362;-72
2022/03/01 16:23:19;;;;;;;10.10;7.75;;;;;;;;;;10221659;28;20058;-71
2022/03/01 16:28:19;;;;;;;21.55;8.73;;;;;;;;;;10237505;29;20051;-73
2022/03/01 16:33:20;;;;;;;12.98;7.93;;;;;;;;;;10204858;28;20123;-71
2022/03/01 16:38:20;;;;;;;17.30;8.20;;;;;;;;;;10196206;29;20060;-72
2022/03/01 16:43:21;;;;;;;20.15;9.38;;;;;;;;;;10210703;29;20775;-72
2022/03/01 16:48:22;;;;;;;19.92;10.27;;;;;;;;;;10198538;29;20038;-79
2022/03/01 16:53:22;;;;;;;22.50;11.52;;;;;;;;;;10197618;29;20085;-73
2022/03/01 16:58:22;;;;;;;21.42;11.52;;;;;;;;;;10242628;28;20025;-72
2022/03/01 17:03:23;;;;;;;20.47;10.90;;;;;;;;;;10300347;28;20039;-72
2022/03/01 17:08:23;;;;;;;21.90;11.25;;;;;;;;;;10272360;28;20029;-72
2022/03/01 17:13:24;;;;;;;23.23;11.05;;;;;;;;;;10244287;23;20397;-74
2022/03/01 17:18:24;;;;;;;22.23;12.30;;;;;;;;;;10317484;28;20026;-73
2022/03/01 17:23:25;;;;;;;25.85;12.57;;;;;;;;;;10323104;28;20147;-72
2022/03/01 17:28:25;;;;;;;30.50;17.33;;;;;;;;;;10323120;28;20033;-71
2022/03/01 17:33:25;;;;;;;25.02;13.50;;;;;;;;;;10322289;28;20117;-71
2022/03/01 17:38:26;;;;;;;32.70;14.52;;;;;;;;;;10323685;28;20022;-73
2022/03/01 17:43:26;;;;;;;29.03;13.37;;;;;;;;;;10323178;28;20038;-73
2022/03/01 17:48:27;;;;;;;25.73;12.88;;;;;;;;;;10318697;28;20270;-73
2022/03/01 17:53:27;;;;;;;20.30;12.05;;;;;;;;;;10323685;28;20026;-74
2022/03/01 17:58:27;;;;;;;24.13;12.40;;;;;;;;;;10282747;28;20082;-72
2022/03/01 18:03:28;;;;;;;25.50;13.13;;;;;;;;;;10309979;28;20300;-72
2022/03/01 18:08:28;;;;;;;28.42;14.35;;;;;;;;;;10271478;28;20266;-71
2022/03/01 18:13:28;;;;;;;18.55;10.82;;;;;;;;;;10290316;28;20097;-73
2022/03/01 18:18:28;;;;;;;17.50;11.00;;;;;;;;;;10310857;28;20490;-72
2022/03/01 18:23:29;;;;;;;21.08;10.00;;;;;;;;;;10313761;28;20297;-72
2022/03/01 18:28:29;;;;;;;27.13;11.87;;;;;;;;;;10369940;28;20031;-73
2022/03/01 18:33:30;;;;;;;21.45;10.85;;;;;;;;;;10288344;28;20282;-72
2022/03/01 18:38:30;;;;;;;17.67;10.05;;;;;;;;;;10281574;28;20079;-71
2022/03/01 18:43:31;;;;;;;24.15;11.18;;;;;;;;;;10302417;28;20500;-71
2022/03/01 18:48:31;;;;;;;24.30;11.73;;;;;;;;;;10321635;28;20434;-71
2022/03/01 18:53:31;;;;;;;26.48;11.75;;;;;;;;;;10321437;28;20482;-72
2022/03/01 18:58:32;;;;;;;21.85;11.90;;;;;;;;;;10319834;28;20038;-72
2022/03/01 19:03:32;;;;;;;26.40;13.18;;;;;;;;;;10319270;28;20030;-72
2022/03/01 19:08:32;;;;;;;25.67;13.63;;;;;;;;;;10287485;28;20418;-71
2022/03/01 19:13:33;;;;;;;27.23;13.52;;;;;;;;;;10279562;28;20541;-71
2022/03/01 19:18:33;;;;;;;24.67;13.27;;;;;;;;;;10288202;28;20169;-74
2022/03/01 19:23:34;;;;;;;30.08;18.38;;;;;;;;;;10362600;28;20033;-72
2022/03/01 19:28:34;;;;;;;32.57;16.03;;;;;;;;;;10460805;28;20031;-72
2022/03/01 19:33:34;;;;;;;27.80;15.52;;;;;;;;;;10509518;28;20027;-72
2022/03/01 19:38:35;;;;;;;26.55;15.60;;;;;;;;;;10308158;28;20038;-71
2022/03/01 19:43:35;;;;;;;28.65;16.77;;;;;;;;;;10296132;28;20034;-73
2022/03/01 19:48:35;;;;;;;25.50;15.60;;;;;;;;;;10283022;28;20482;-71
2022/03/01 19:53:36;;;;;;;23.88;12.43;;;;;;;;;;10294748;28;20031;-72
2022/03/01 19:58:36;;;;;;;25.40;13.05;;;;;;;;;;10307459;28;20035;-72
2022/03/01 20:03:38;;;;;;;23.67;11.10;;;;;;;;;;10310071;28;20117;-74
2022/03/01 20:08:38;;;;;;;20.50;11.82;;;;;;;;;;10293403;28;20114;-72
2022/03/01 20:13:39;;;;;;;23.75;13.27;;;;;;;;;;10294828;28;20070;-73
2022/03/01 20:18:39;;;;;;;21.95;13.85;;;;;;;;;;10290464;28;20034;-70
2022/03/01 20:23:40;;;;;;;21.35;11.05;;;;;;;;;;10277323;28;20087;-73
2022/03/01 20:28:40;;;;;;;20.90;11.55;;;;;;;;;;10276992;28;20027;-77
2022/03/01 20:33:41;;;;;;;19.70;10.88;;;;;;;;;;10290018;28;20088;-75
2022/03/01 20:38:42;;;;;;;16.58;8.98;;;;;;;;;;10277245;28;20038;-72
2022/03/01 20:43:42;;;;;;;17.67;10.15;;;;;;;;;;10278119;28;20145;-72
2022/03/01 20:48:43;;;;;;;16.02;9.10;;;;;;;;;;10352118;28;20091;-74
2022/03/01 20:53:43;;;;;;;18.05;10.57;;;;;;;;;;10316508;28;20026;-74
2022/03/01 20:58:43;;;;;;;15.80;9.63;;;;;;;;;;10303106;28;20037;-75
2022/03/01 21:03:44;;;;;;;20.08;9.02;;;;;;;;;;10305580;28;20126;-73
2022/03/01 21:08:44;;;;;;;17.27;8.98;;;;;;;;;;10277776;28;20027;-72
2022/03/01 21:13:45;;;;;;;14.50;9.18;;;;;;;;;;10265498;28;20058;-73
2022/03/01 21:18:45;;;;;;;14.38;9.45;;;;;;;;;;10294987;28;20033;-72
2022/03/01 21:23:45;;;;;;;15.23;8.65;;;;;;;;;;10288247;28;20061;-74
2022/03/01 21:28:46;;;;;;;17.75;10.52;;;;;;;;;;10295698;28;20535;-74
2022/03/01 21:33:46;;;;;;;19.27;10.47;;;;;;;;;;10317300;28;20030;-72
2022/03/01 21:38:47;;;;;;;14.55;9.43;;;;;;;;;;10307457;28;20699;-75
2022/03/01 21:43:47;;;;;;;17.97;9.80;;;;;;;;;;10298488;28;20035;-72
2022/03/01 21:48:47;;;;;;;22.05;12.27;;;;;;;;;;10276899;28;20415;-73
2022/03/01 21:53:48;;;;;;;25.83;12.43;;;;;;;;;;10361568;28;20449;-71
2022/03/01 21:58:49;;;;;;;25.95;11.63;;;;;;;;;;10277557;28;20507;-72
2022/03/01 22:03:49;;;;;;;21.77;11.50;;;;;;;;;;10361685;28;20034;-72
2022/03/01 22:08:49;;;;;;;26.10;12.53;;;;;;;;;;10367752;28;20023;-73
2022/03/01 22:13:50;;;;;;;32.13;13.93;;;;;;;;;;10283844;28;20475;-71
2022/03/01 22:18:50;;;;;;;31.58;16.15;;;;;;;;;;10376326;28;20482;-71
2022/03/01 22:23:50;;;;;;;23.00;13.70;;;;;;;;;;10292116;28;20039;-71
2022/03/01 22:28:51;;;;;;;22.15;12.60;;;;;;;;;;10282498;28;20398;-72
2022/03/01 22:33:51;;;;;;;16.30;11.73;;;;;;;;;;10282227;28;20577;-74
2022/03/01 22:38:52;;;;;;;21.17;12.60;;;;;;;;;;10281906;28;20502;-72
2022/03/01 22:43:53;;;;;;;21.25;11.68;;;;;;;;;;10283185;28;20572;-72
2022/03/01 22:48:54;;;;;;;29.93;15.10;;;;;;;;;;10281805;28;20080;-72
2022/03/01 22:53:54;;;;;;;27.55;15.38;;;;;;;;;;10285057;28;20046;-73
2022/03/01 22:58:54;;;;;;;34.58;17.67;;;;;;;;;;10288345;28;20126;-71
2022/03/01 23:03:55;;;;;;;37.30;18.50;;;;;;;;;;10281854;28;20031;-72
2022/03/01 23:08:56;;;;;;;38.40;20.55;;;;;;;;;;10365592;28;20493;-72
2022/03/01 23:13:57;;;;;;;36.30;18.10;;;;;;;;;;10368870;28;20559;-73
2022/03/01 23:18:57;;;;;;;35.03;16.87;;;;;;;;;;10315415;28;20536;-71
2022/03/01 23:23:57;;;;;;;49.38;20.83;;;;;;;;;;10312195;28;20311;-71
2022/03/01 23:28:58;;;;;;;35.80;18.07;;;;;;;;;;10296168;28;20027;-72
2022/03/01 23:33:58;;;;;;;37.38;16.52;;;;;;;;;;10264547;28;20033;-71
2022/03/01 23:38:58;;;;;;;32.60;16.20;;;;;;;;;;10282533;28;20449;-75
2022/03/01 23:43:58;;;;;;;35.05;16.58;;;;;;;;;;10290207;28;20117;-73
2022/03/01 23:48:59;;;;;;;37.67;16.67;;;;;;;;;;10282473;28;20045;-72
2022/03/01 23:53:59;;;;;;;28.58;14.90;;;;;;;;;;10290340;28;20510;-72
2022/03/01 23:59:00;;;;;;;28.75;14.70;;;;;;;;;;10279937;28;20545;-72
